createdAt,value
2022-08-31T00:00:09.747Z,99300.97
2022-08-31T00:02:57.628Z,99304.44
2022-08-31T00:05:25.620Z,99299.50
2022-08-31T00:07:55.601Z,99300.88
2022-08-31T00:10:32.233Z,99298.47
2022-08-31T00:13:01.487Z,99307.94
2022-08-31T00:15:31.155Z,99299.50
2022-08-31T00:18:00.400Z,99293.78
2022-08-31T00:20:33.266Z,99305.44
2022-08-31T00:23:02.729Z,99296.25
2022-08-31T00:25:30.772Z,99293.84
2022-08-31T00:27:58.672Z,99291.97
2022-08-31T00:30:27.420Z,99296.53
2022-08-31T00:32:57.067Z,99294.75
2022-08-31T00:35:28.798Z,99298.00
2022-08-31T00:37:57.514Z,99296.84
2022-08-31T00:40:26.248Z,99295.28
2022-08-31T00:42:55.326Z,99288.97
2022-08-31T00:45:24.583Z,99292.53
2022-08-31T00:47:53.401Z,99294.63
2022-08-31T00:50:24.694Z,99290.28
2022-08-31T00:52:56.474Z,99295.88
2022-08-31T00:55:29.737Z,99290.06
2022-08-31T00:58:01.148Z,99287.13
2022-08-31T01:00:30.977Z,99293.03
2022-08-31T01:03:01.901Z,99292.16
2022-08-31T01:05:30.841Z,99289.75
2022-08-31T01:08:01.665Z,99296.75
2022-08-31T01:10:33.556Z,99287.59
2022-08-31T01:13:02.787Z,99288.56
2022-08-31T01:15:32.151Z,99293.00
2022-08-31T01:18:02.886Z,99280.94
2022-08-31T01:20:38.260Z,99291.63
2022-08-31T01:23:19.116Z,99292.50
2022-08-31T01:25:49.724Z,99295.22
2022-08-31T01:28:17.357Z,99283.31
2022-08-31T01:30:57.860Z,99288.28
2022-08-31T01:33:25.676Z,99287.50
2022-08-31T01:35:54.112Z,99287.84
2022-08-31T01:38:24.524Z,99284.81
2022-08-31T01:40:55.759Z,99283.31
2022-08-31T01:43:24.884Z,99287.41
2022-08-31T01:45:53.325Z,99286.38
2022-08-31T01:48:22.747Z,99288.03
2022-08-31T01:50:50.826Z,99278.91
2022-08-31T01:53:18.985Z,99283.63
2022-08-31T01:55:48.492Z,99273.13
2022-08-31T01:58:16.815Z,99278.72
2022-08-31T02:01:33.735Z,99285.34
2022-08-31T02:04:04.119Z,99278.13
2022-08-31T02:06:32.893Z,99288.09
2022-08-31T02:09:00.814Z,99275.06
2022-08-31T02:11:30.229Z,99278.47
2022-08-31T02:13:58.438Z,99269.56
2022-08-31T02:16:26.475Z,99265.06
2022-08-31T02:18:55.204Z,99267.53
2022-08-31T02:21:23.429Z,99258.41
2022-08-31T02:23:51.528Z,99267.25
2022-08-31T02:26:19.976Z,99269.56
2022-08-31T02:28:49.290Z,99267.13
2022-08-31T02:31:17.778Z,99257.94
2022-08-31T02:33:53.488Z,99267.66
2022-08-31T02:36:23.537Z,99271.22
2022-08-31T02:38:52.568Z,99264.19
2022-08-31T02:41:21.658Z,99273.59
2022-08-31T02:43:51.244Z,99275.53
2022-08-31T02:46:19.456Z,99273.50
2022-08-31T02:48:57.130Z,99281.19
2022-08-31T02:51:25.409Z,99276.97
2022-08-31T02:53:53.845Z,99263.78
2022-08-31T02:56:23.999Z,99276.19
2022-08-31T02:58:55.111Z,99273.66
2022-08-31T03:01:26.427Z,99287.03
2022-08-31T03:03:54.653Z,99294.22
2022-08-31T03:06:23.679Z,99292.19
2022-08-31T03:08:51.694Z,99293.09
2022-08-31T03:11:20.499Z,99297.31
2022-08-31T03:13:48.527Z,99289.66
2022-08-31T03:16:17.835Z,99285.44
2022-08-31T03:18:48.631Z,99281.03
2022-08-31T03:21:17.375Z,99292.19
2022-08-31T03:23:45.183Z,99289.34
2022-08-31T03:26:13.393Z,99276.47
2022-08-31T03:28:42.144Z,99284.94
2022-08-31T03:31:40.381Z,99292.19
2022-08-31T03:34:08.538Z,99290.66
2022-08-31T03:36:37.004Z,99285.25
2022-08-31T03:39:05.520Z,99282.63
2022-08-31T03:41:33.325Z,99287.63
2022-08-31T03:44:02.780Z,99285.84
2022-08-31T03:46:33.118Z,99288.06
2022-08-31T03:49:04.360Z,99282.44
2022-08-31T03:51:34.585Z,99277.72
2022-08-31T03:54:03.331Z,99278.88
2022-08-31T03:56:33.476Z,99279.34
2022-08-31T03:59:01.347Z,99276.53
2022-08-31T04:01:49.163Z,99267.88
2022-08-31T04:04:41.658Z,99278.25
2022-08-31T04:07:27.802Z,99284.03
2022-08-31T04:10:15.999Z,99286.38
2022-08-31T04:13:19.762Z,99285.94
2022-08-31T04:16:20.741Z,99292.22
2022-08-31T04:19:24.411Z,99292.66
2022-08-31T04:22:15.768Z,99282.13
2022-08-31T04:25:00.344Z,99293.88
2022-08-31T04:27:28.371Z,99299.66
2022-08-31T04:29:56.420Z,99297.63
2022-08-31T04:32:24.402Z,99297.34
2022-08-31T04:34:56.130Z,99294.66
2022-08-31T04:37:26.021Z,99301.09
2022-08-31T04:39:59.305Z,99297.84
2022-08-31T04:42:27.391Z,99296.84
2022-08-31T04:44:55.271Z,99304.38
2022-08-31T04:47:24.314Z,99309.09
2022-08-31T04:49:52.115Z,99308.81
2022-08-31T04:52:20.022Z,99311.00
2022-08-31T04:54:57.328Z,99319.50
2022-08-31T04:57:25.274Z,99316.34
2022-08-31T04:59:53.324Z,99321.06
2022-08-31T05:02:54.597Z,99321.66
2022-08-31T05:05:22.872Z,99329.53
2022-08-31T05:07:51.135Z,99330.63
2022-08-31T05:10:21.667Z,99321.53
2022-08-31T05:12:51.743Z,99332.97
2022-08-31T05:15:21.368Z,99331.09
2022-08-31T05:17:49.242Z,99332.94
2022-08-31T05:20:17.765Z,99339.88
2022-08-31T05:22:45.570Z,99338.78
2022-08-31T05:25:14.039Z,99335.94
2022-08-31T05:27:43.672Z,99335.00
2022-08-31T05:30:13.761Z,99341.06
2022-08-31T05:32:45.713Z,99333.59
2022-08-31T05:35:14.092Z,99341.41
2022-08-31T05:37:44.669Z,99340.56
2022-08-31T05:40:13.562Z,99334.81
2022-08-31T05:42:42.914Z,99334.78
2022-08-31T05:45:11.447Z,99343.59
2022-08-31T05:47:40.947Z,99340.31
2022-08-31T05:50:10.365Z,99344.88
2022-08-31T05:52:41.199Z,99345.75
2022-08-31T05:55:09.793Z,99347.19
2022-08-31T05:57:38.220Z,99344.84
2022-08-31T06:00:09.773Z,99346.09
2022-08-31T06:02:42.421Z,99344.63
2022-08-31T06:05:13.100Z,99347.19
2022-08-31T06:07:41.843Z,99348.88
2022-08-31T06:10:12.638Z,99348.25
2022-08-31T06:12:42.393Z,99344.78
2022-08-31T06:15:13.204Z,99355.16
2022-08-31T06:17:41.043Z,99356.66
2022-08-31T06:20:14.224Z,99354.16
2022-08-31T06:22:46.774Z,99350.38
2022-08-31T06:25:23.569Z,99359.84
2022-08-31T06:27:52.976Z,99366.81
2022-08-31T06:30:27.251Z,99360.28
2022-08-31T06:32:58.653Z,99359.84
2022-08-31T06:35:31.890Z,99366.09
2022-08-31T06:38:22.783Z,99369.34
2022-08-31T06:41:16.484Z,99370.72
2022-08-31T06:44:07.886Z,99376.56
2022-08-31T06:46:53.943Z,99381.03
2022-08-31T06:49:27.318Z,99387.84
2022-08-31T06:51:55.426Z,99386.16
2022-08-31T06:54:30.977Z,99381.53
2022-08-31T06:57:25.147Z,99381.75
2022-08-31T07:00:12.142Z,99385.72
2022-08-31T07:02:57.307Z,99389.47
2022-08-31T07:05:26.360Z,99394.19
2022-08-31T07:07:55.128Z,99389.00
2022-08-31T07:10:23.091Z,99390.72
2022-08-31T07:12:51.054Z,99393.06
2022-08-31T07:15:18.925Z,99392.50
2022-08-31T07:17:47.995Z,99392.94
2022-08-31T07:20:17.639Z,99402.25
2022-08-31T07:22:45.535Z,99398.69
2022-08-31T07:25:34.055Z,99408.56
2022-08-31T07:28:02.580Z,99409.09
2022-08-31T07:30:34.252Z,99406.19
2022-08-31T07:33:06.104Z,99412.22
2022-08-31T07:35:37.388Z,99410.19
2022-08-31T07:38:38.052Z,99401.31
2022-08-31T07:41:27.852Z,99409.50
2022-08-31T07:43:57.198Z,99411.06
2022-08-31T07:46:30.016Z,99407.41
2022-08-31T07:48:58.590Z,99421.66
2022-08-31T07:52:06.024Z,99414.66
2022-08-31T07:55:07.779Z,99419.78
2022-08-31T07:57:53.459Z,99424.00
2022-08-31T08:00:24.279Z,99412.56
2022-08-31T08:02:53.071Z,99421.50
2022-08-31T08:05:27.094Z,99420.53
2022-08-31T08:08:16.840Z,99416.13
2022-08-31T08:10:56.376Z,99417.97
2022-08-31T08:13:54.364Z,99424.63
2022-08-31T08:16:30.286Z,99434.22
2022-08-31T08:19:08.884Z,99434.19
2022-08-31T08:21:37.875Z,99438.94
2022-08-31T08:24:08.282Z,99440.16
2022-08-31T08:27:08.293Z,99436.75
2022-08-31T08:29:53.831Z,99435.72
2022-08-31T08:32:31.341Z,99440.34
2022-08-31T08:34:59.908Z,99444.53
2022-08-31T08:37:54.437Z,99441.91
2022-08-31T08:40:28.425Z,99441.22
2022-08-31T08:42:58.847Z,99446.19
2022-08-31T08:45:27.452Z,99446.22
2022-08-31T08:47:57.010Z,99448.03
2022-08-31T08:50:28.354Z,99444.66
2022-08-31T08:52:59.399Z,99441.19
2022-08-31T08:55:36.874Z,99447.25
2022-08-31T08:58:08.354Z,99445.44
2022-08-31T09:00:42.000Z,99447.81
2022-08-31T09:03:21.114Z,99451.97
2022-08-31T09:06:13.548Z,99455.06
2022-08-31T09:09:24.380Z,99443.00
2022-08-31T09:12:14.845Z,99448.16
2022-08-31T09:14:53.537Z,99446.97
2022-08-31T09:17:40.455Z,99445.97
2022-08-31T09:20:09.113Z,99450.38
2022-08-31T09:22:47.003Z,99444.75
2022-08-31T09:25:19.034Z,99441.31
2022-08-31T09:28:07.519Z,99443.69
2022-08-31T09:30:52.058Z,99438.28
2022-08-31T09:33:23.574Z,99437.19
2022-08-31T09:35:55.734Z,99434.97
2022-08-31T09:38:31.941Z,99432.53
2022-08-31T09:41:02.097Z,99435.94
2022-08-31T09:43:38.487Z,99434.13
2022-08-31T09:46:09.629Z,99434.13
2022-08-31T09:48:51.610Z,99428.34
2022-08-31T09:51:25.493Z,99430.75
2022-08-31T09:54:11.508Z,99426.56
2022-08-31T09:56:55.022Z,99424.03
2022-08-31T09:59:38.508Z,99425.72
2022-08-31T10:02:11.337Z,99429.72
2022-08-31T10:04:51.027Z,99413.88
2022-08-31T10:07:37.715Z,99421.69
2022-08-31T10:10:28.122Z,99414.88
2022-08-31T10:13:03.702Z,99412.81
2022-08-31T10:15:43.131Z,99414.34
2022-08-31T10:18:16.412Z,99418.56
2022-08-31T10:20:50.716Z,99412.53
2022-08-31T10:23:27.083Z,99406.56
2022-08-31T10:26:02.854Z,99413.13
2022-08-31T10:28:35.960Z,99418.94
2022-08-31T10:31:12.588Z,99412.69
2022-08-31T10:34:02.406Z,99415.44
2022-08-31T10:36:36.362Z,99412.69
2022-08-31T10:39:05.150Z,99411.50
2022-08-31T10:41:41.067Z,99409.97
2022-08-31T10:44:17.946Z,99400.63
2022-08-31T10:46:47.109Z,99414.03
2022-08-31T10:49:15.207Z,99396.97
2022-08-31T10:51:52.065Z,99396.97
2022-08-31T10:54:32.975Z,99395.81
2022-08-31T10:57:09.518Z,99395.16
2022-08-31T10:59:57.754Z,99406.84
2022-08-31T11:02:40.880Z,99392.75
2022-08-31T11:05:26.996Z,99399.66
2022-08-31T11:08:02.784Z,99395.03
2022-08-31T11:10:44.601Z,99396.75
2022-08-31T11:13:38.395Z,99400.09
2022-08-31T11:16:36.428Z,99397.25
2022-08-31T11:19:33.114Z,99397.66
2022-08-31T11:22:37.519Z,99398.84
2022-08-31T11:25:24.878Z,99392.03
2022-08-31T11:28:00.197Z,99395.53
2022-08-31T11:30:32.706Z,99394.25
2022-08-31T11:33:07.620Z,99393.25
2022-08-31T11:36:05.604Z,99392.13
2022-08-31T11:38:52.227Z,99394.59
2022-08-31T11:41:46.586Z,99390.22
2022-08-31T11:44:53.937Z,99390.59
2022-08-31T11:47:35.680Z,99394.25
2022-08-31T11:50:10.485Z,99393.97
2022-08-31T11:55:29.510Z,99385.44
2022-08-31T11:58:20.739Z,99381.84
2022-08-31T12:01:03.021Z,99386.81
2022-08-31T12:03:43.171Z,99392.78
2022-08-31T12:06:12.459Z,99397.22
2022-08-31T12:08:52.705Z,99393.41
2022-08-31T12:11:29.629Z,99382.72
2022-08-31T12:14:05.673Z,99384.25
2022-08-31T12:16:53.516Z,99391.91
2022-08-31T12:20:01.900Z,99376.63
2022-08-31T12:23:30.207Z,99381.34
2022-08-31T12:26:44.911Z,99382.84
2022-08-31T12:29:26.705Z,99383.88
2022-08-31T12:32:11.145Z,99384.78
2022-08-31T12:34:45.398Z,99393.88
2022-08-31T12:37:35.207Z,99383.50
2022-08-31T12:40:12.130Z,99386.06
2022-08-31T12:42:48.859Z,99392.13
2022-08-31T12:45:18.444Z,99392.03
2022-08-31T12:47:58.997Z,99379.25
2022-08-31T12:50:34.363Z,99385.22
2022-08-31T12:53:41.189Z,99390.66
2022-08-31T12:56:15.146Z,99384.28
2022-08-31T12:59:04.804Z,99380.34
2022-08-31T13:01:33.486Z,99385.97
2022-08-31T13:04:04.815Z,99384.81
2022-08-31T13:06:36.291Z,99381.41
2022-08-31T13:09:06.632Z,99381.72
2022-08-31T13:11:40.648Z,99381.06
2022-08-31T13:14:15.676Z,99379.94
2022-08-31T13:16:46.615Z,99376.94
2022-08-31T13:19:25.990Z,99377.69
2022-08-31T13:21:58.828Z,99379.91
2022-08-31T13:24:30.933Z,99371.63
2022-08-31T13:27:09.556Z,99364.78
2022-08-31T13:29:45.171Z,99364.03
2022-08-31T13:32:32.209Z,99363.66
2022-08-31T13:35:03.245Z,99361.06
2022-08-31T13:37:35.750Z,99359.53
2022-08-31T13:40:11.299Z,99361.16
2022-08-31T13:42:42.996Z,99356.03
2022-08-31T13:45:26.569Z,99354.47
2022-08-31T13:47:58.764Z,99355.53
2022-08-31T13:50:34.284Z,99355.16
2022-08-31T13:55:54.003Z,99354.59
2022-08-31T13:58:29.246Z,99356.78
2022-08-31T14:01:25.670Z,99355.91
2022-08-31T14:03:58.375Z,99358.03
2022-08-31T14:06:30.822Z,99356.44
2022-08-31T14:09:05.290Z,99357.81
2022-08-31T14:11:35.894Z,99349.69
2022-08-31T14:14:08.380Z,99349.44
2022-08-31T14:16:43.505Z,99344.84
2022-08-31T14:19:14.387Z,99342.53
2022-08-31T14:21:43.802Z,99343.50
2022-08-31T14:24:13.283Z,99341.47
2022-08-31T14:26:43.309Z,99333.78
2022-08-31T14:29:13.812Z,99345.50
2022-08-31T14:31:52.294Z,99339.81
2022-08-31T14:34:24.637Z,99338.69
2022-08-31T14:36:56.740Z,99341.78
2022-08-31T14:39:29.953Z,99341.94
2022-08-31T14:42:00.758Z,99336.03
2022-08-31T14:44:32.296Z,99339.91
2022-08-31T14:47:02.005Z,99341.03
2022-08-31T14:49:41.097Z,99330.81
2022-08-31T14:52:09.566Z,99334.16
2022-08-31T14:54:38.282Z,99337.69
2022-08-31T14:57:11.546Z,99331.38
2022-08-31T14:59:43.426Z,99334.94
2022-08-31T15:02:16.517Z,99332.22
2022-08-31T15:04:45.935Z,99322.34
2022-08-31T15:07:14.992Z,99326.13
2022-08-31T15:09:44.084Z,99326.47
2022-08-31T15:12:14.906Z,99320.69
2022-08-31T15:14:45.063Z,99329.16
2022-08-31T15:17:19.682Z,99319.88
2022-08-31T15:19:53.112Z,99322.78
2022-08-31T15:22:21.811Z,99317.97
2022-08-31T15:24:50.403Z,99324.56
2022-08-31T15:27:18.817Z,99322.56
2022-08-31T15:29:51.008Z,99325.94
2022-08-31T15:32:22.630Z,99324.28
2022-08-31T15:34:58.038Z,99329.09
2022-08-31T15:37:32.133Z,99330.03
2022-08-31T15:40:03.766Z,99333.25
2022-08-31T15:42:36.895Z,99328.72
2022-08-31T15:45:06.530Z,99327.41
2022-08-31T15:47:56.819Z,99321.78
2022-08-31T15:50:31.390Z,99324.19
2022-08-31T15:53:08.701Z,99326.78
2022-08-31T15:55:41.153Z,99319.84
2022-08-31T15:58:13.807Z,99321.97
2022-08-31T16:00:42.426Z,99321.97
2022-08-31T16:03:12.647Z,99316.88
2022-08-31T16:05:43.825Z,99320.16
2022-08-31T16:08:13.554Z,99317.91
2022-08-31T16:10:46.611Z,99315.56
2022-08-31T16:13:16.526Z,99311.03
2022-08-31T16:15:51.593Z,99308.47
2022-08-31T16:18:23.233Z,99312.16
2022-08-31T16:20:52.409Z,99309.31
2022-08-31T16:23:21.402Z,99310.22
2022-08-31T16:25:49.837Z,99310.84
2022-08-31T16:28:21.055Z,99308.66
2022-08-31T16:30:51.966Z,99308.81
2022-08-31T16:33:22.195Z,99313.31
2022-08-31T16:35:52.082Z,99315.94
2022-08-31T16:38:27.917Z,99316.88
2022-08-31T16:41:03.190Z,99314.75
2022-08-31T16:43:31.564Z,99315.34
2022-08-31T16:46:00.871Z,99321.84
2022-08-31T16:48:51.097Z,99314.59
2022-08-31T16:51:26.314Z,99318.84
2022-08-31T16:54:01.205Z,99319.69
2022-08-31T16:56:42.329Z,99319.31
2022-08-31T16:59:19.785Z,99321.34
2022-08-31T17:01:47.933Z,99333.56
2022-08-31T17:04:41.156Z,99337.00
2022-08-31T17:07:13.502Z,99331.81
2022-08-31T17:09:47.658Z,99333.63
2022-08-31T17:12:27.615Z,99326.38
2022-08-31T17:14:59.257Z,99327.97
2022-08-31T17:17:32.655Z,99334.97
2022-08-31T17:20:07.024Z,99332.13
2022-08-31T17:25:52.881Z,99342.50
2022-08-31T17:28:39.875Z,99334.38
2022-08-31T17:31:16.838Z,99338.72
2022-08-31T17:34:00.668Z,99344.41
2022-08-31T17:36:44.184Z,99341.66
2022-08-31T17:39:28.903Z,99348.34
2022-08-31T17:42:02.127Z,99349.66
2022-08-31T17:44:31.838Z,99351.94
2022-08-31T17:47:06.238Z,99356.38
2022-08-31T17:49:42.142Z,99353.91
2022-08-31T17:52:23.501Z,99369.91
2022-08-31T17:54:52.754Z,99364.53
2022-08-31T17:57:25.631Z,99368.53
2022-08-31T17:59:56.027Z,99370.16
2022-08-31T18:02:27.699Z,99372.06
2022-08-31T18:04:57.700Z,99376.94
2022-08-31T18:07:29.377Z,99375.44
2022-08-31T18:10:00.966Z,99386.41
2022-08-31T18:12:29.605Z,99390.75
2022-08-31T18:14:59.557Z,99393.31
2022-08-31T18:17:27.945Z,99397.72
2022-08-31T18:19:56.641Z,99402.78
2022-08-31T18:22:25.447Z,99406.03
2022-08-31T18:24:55.320Z,99400.53
2022-08-31T18:27:23.991Z,99404.03
2022-08-31T18:29:52.913Z,99404.63
2022-08-31T18:32:21.289Z,99405.03
2022-08-31T18:34:52.087Z,99410.94
2022-08-31T18:37:26.097Z,99404.69
2022-08-31T18:40:13.269Z,99414.69
2022-08-31T18:43:07.401Z,99413.28
2022-08-31T18:45:39.676Z,99423.66
2022-08-31T18:48:24.281Z,99433.34
2022-08-31T18:50:54.655Z,99430.06
2022-08-31T18:53:29.314Z,99422.88
2022-08-31T18:56:09.247Z,99419.41
2022-08-31T18:58:38.060Z,99423.78
2022-08-31T19:01:10.601Z,99418.88
2022-08-31T19:03:39.872Z,99417.53
2022-08-31T19:06:09.294Z,99421.53
2022-08-31T19:08:37.796Z,99426.06
2022-08-31T19:11:09.137Z,99418.41
2022-08-31T19:13:38.885Z,99425.06
2022-08-31T19:16:15.239Z,99425.25
2022-08-31T19:18:47.680Z,99430.56
2022-08-31T19:21:19.386Z,99426.94
2022-08-31T19:23:49.736Z,99420.72
2022-08-31T19:26:23.987Z,99421.00
2022-08-31T19:28:52.535Z,99418.66
2022-08-31T19:31:22.966Z,99409.09
2022-08-31T19:33:56.396Z,99408.34
2022-08-31T19:36:27.737Z,99415.16
2022-08-31T19:38:57.700Z,99413.91
2022-08-31T19:41:29.707Z,99418.69
2022-08-31T19:44:09.008Z,99417.50
2022-08-31T19:46:39.101Z,99417.25
2022-08-31T19:49:09.711Z,99411.63
2022-08-31T19:51:38.660Z,99418.91
2022-08-31T19:54:09.049Z,99423.78
2022-08-31T19:56:40.112Z,99426.16
2022-08-31T19:59:09.411Z,99418.25
2022-08-31T20:01:40.292Z,99418.91
2022-08-31T20:04:15.918Z,99424.00
2022-08-31T20:06:45.261Z,99429.59
2022-08-31T20:09:14.107Z,99427.91
2022-08-31T20:11:47.520Z,99424.31
2022-08-31T20:14:16.843Z,99427.03
2022-08-31T20:16:46.516Z,99422.44
2022-08-31T20:19:21.027Z,99425.16
2022-08-31T20:21:54.059Z,99425.47
2022-08-31T20:24:25.478Z,99435.94
2022-08-31T20:27:01.093Z,99432.41
2022-08-31T20:29:30.449Z,99434.38
2022-08-31T20:32:01.301Z,99438.41
2022-08-31T20:34:29.243Z,99437.66
2022-08-31T20:37:01.182Z,99438.38
2022-08-31T20:39:32.306Z,99434.84
2022-08-31T20:42:03.392Z,99443.91
2022-08-31T20:44:33.752Z,99444.47
2022-08-31T20:47:21.684Z,99445.66
2022-08-31T20:49:54.553Z,99444.88
2022-08-31T20:52:24.165Z,99448.41
2022-08-31T20:54:54.328Z,99441.53
2022-08-31T20:57:33.061Z,99446.34
2022-08-31T21:00:05.639Z,99449.28
2022-08-31T21:02:34.337Z,99450.38
2022-08-31T21:07:52.242Z,99440.28
2022-08-31T21:10:37.043Z,99446.19
2022-08-31T21:13:09.803Z,99447.03
2022-08-31T21:15:42.774Z,99439.09
2022-08-31T21:18:10.823Z,99446.81
2022-08-31T21:20:39.250Z,99443.13
2022-08-31T21:23:09.757Z,99439.72
2022-08-31T21:25:44.886Z,99435.44
2022-08-31T21:28:17.044Z,99441.00
2022-08-31T21:30:47.038Z,99451.75
2022-08-31T21:33:14.851Z,99434.44
2022-08-31T21:35:42.769Z,99436.66
2022-08-31T21:38:13.088Z,99438.88
2022-08-31T21:40:48.034Z,99439.09
2022-08-31T21:43:17.285Z,99441.16
2022-08-31T21:45:45.285Z,99443.66
2022-08-31T21:48:13.092Z,99449.16
2022-08-31T21:50:40.912Z,99446.16
2022-08-31T21:53:08.762Z,99442.03
2022-08-31T21:55:38.496Z,99445.88
2022-08-31T21:58:06.349Z,99445.50
2022-08-31T22:00:35.594Z,99447.66
2022-08-31T22:03:03.520Z,99444.94
2022-08-31T22:05:31.643Z,99448.88
2022-08-31T22:07:59.452Z,99452.22
2022-08-31T22:10:30.348Z,99452.72
2022-08-31T22:12:58.459Z,99447.19
2022-08-31T22:15:28.099Z,99451.47
2022-08-31T22:18:31.460Z,99451.47
2022-08-31T22:20:46.007Z,99448.53
2022-08-31T22:23:14.121Z,99448.59
2022-08-31T22:25:41.930Z,99441.56
2022-08-31T22:28:10.226Z,99447.31
2022-08-31T22:30:38.039Z,99443.09
2022-08-31T22:33:07.353Z,99443.28
2022-08-31T22:35:39.344Z,99441.41
2022-08-31T22:38:09.121Z,99442.34
2022-08-31T22:40:39.423Z,99440.47
2022-08-31T22:43:07.673Z,99438.75
2022-08-31T22:45:35.711Z,99446.56
2022-08-31T22:48:03.827Z,99442.34
2022-08-31T22:50:32.999Z,99451.06
2022-08-31T22:53:00.816Z,99453.72
2022-08-31T22:55:28.636Z,99452.47
2022-08-31T22:57:56.575Z,99447.44
2022-08-31T23:00:24.727Z,99443.56
2022-08-31T23:02:52.897Z,99445.75
2022-08-31T23:05:21.392Z,99435.06
2022-08-31T23:07:50.512Z,99436.03
2022-08-31T23:10:20.382Z,99438.53
2022-08-31T23:12:51.169Z,99435.47
2022-08-31T23:15:21.587Z,99440.38
2022-08-31T23:17:51.539Z,99427.75
2022-08-31T23:20:24.403Z,99440.03
2022-08-31T23:22:55.306Z,99437.63
2022-08-31T23:25:25.042Z,99441.19
2022-08-31T23:27:53.391Z,99435.06
2022-08-31T23:30:24.853Z,99428.22
2022-08-31T23:32:53.368Z,99441.28
2022-08-31T23:35:22.066Z,99435.47
2022-08-31T23:37:49.957Z,99435.13
2022-08-31T23:40:19.219Z,99430.50
2022-08-31T23:42:47.055Z,99435.25
2022-08-31T23:45:16.126Z,99420.94
2022-08-31T23:47:43.900Z,99428.59
2022-08-31T23:50:13.989Z,99436.06
2022-08-31T23:52:43.620Z,99427.94
2022-08-31T23:55:12.090Z,99426.03
2022-08-31T23:57:41.916Z,99417.56
